sensor_id;sensor_type;location;lat;lon;timestamp;P1;durP1;ratioP1;P2;durP2;ratioP2
31390;SDS011;18022;45.492;11.548;2022-11-20T00:01:09;14.00;;;7.00;;
31390;SDS011;18022;45.492;11.548;2022-11-20T00:03:36;11.30;;;7.38;;
31390;SDS011;18022;45.492;11.548;2022-11-20T00:06:06;11.50;;;7.07;;
31390;SDS011;18022;45.492;11.548;2022-11-20T00:08:34;10.68;;;7.65;;
31390;SDS011;18022;45.492;11.548;2022-11-20T00:11:04;11.30;;;8.25;;
31390;SDS011;18022;45.492;11.548;2022-11-20T00:13:35;11.45;;;8.50;;
31390;SDS011;18022;45.492;11.548;2022-11-20T00:16:01;10.82;;;8.30;;
31390;SDS011;18022;45.492;11.548;2022-11-20T00:21:00;12.65;;;7.38;;
31390;SDS011;18022;45.492;11.548;2022-11-20T00:23:29;11.48;;;7.93;;
31390;SDS011;18022;45.492;11.548;2022-11-20T00:25:55;11.35;;;8.15;;
31390;SDS011;18022;45.492;11.548;2022-11-20T00:28:21;11.73;;;8.20;;
31390;SDS011;18022;45.492;11.548;2022-11-20T00:30:47;12.52;;;7.28;;
31390;SDS011;18022;45.492;11.548;2022-11-20T00:33:13;11.60;;;8.30;;
31390;SDS011;18022;45.492;11.548;2022-11-20T00:35:38;11.75;;;7.35;;
31390;SDS011;18022;45.492;11.548;2022-11-20T00:38:04;10.95;;;7.70;;
31390;SDS011;18022;45.492;11.548;2022-11-20T00:40:29;9.18;;;7.50;;
31390;SDS011;18022;45.492;11.548;2022-11-20T00:42:55;11.65;;;7.57;;
31390;SDS011;18022;45.492;11.548;2022-11-20T00:45:21;10.75;;;7.82;;
31390;SDS011;18022;45.492;11.548;2022-11-20T00:47:46;9.00;;;6.82;;
31390;SDS011;18022;45.492;11.548;2022-11-20T00:50:12;9.80;;;7.60;;
31390;SDS011;18022;45.492;11.548;2022-11-20T00:52:38;11.57;;;6.85;;
31390;SDS011;18022;45.492;11.548;2022-11-20T00:55:03;11.82;;;7.35;;
31390;SDS011;18022;45.492;11.548;2022-11-20T00:57:29;9.73;;;7.18;;
31390;SDS011;18022;45.492;11.548;2022-11-20T00:59:55;10.63;;;7.45;;
31390;SDS011;18022;45.492;11.548;2022-11-20T01:02:21;8.65;;;7.15;;
31390;SDS011;18022;45.492;11.548;2022-11-20T01:04:47;11.60;;;7.57;;
31390;SDS011;18022;45.492;11.548;2022-11-20T01:07:13;10.32;;;7.47;;
31390;SDS011;18022;45.492;11.548;2022-11-20T01:09:39;10.73;;;8.52;;
31390;SDS011;18022;45.492;11.548;2022-11-20T01:12:05;11.23;;;8.27;;
31390;SDS011;18022;45.492;11.548;2022-11-20T01:14:30;13.95;;;8.70;;
31390;SDS011;18022;45.492;11.548;2022-11-20T01:16:56;14.63;;;9.15;;
31390;SDS011;18022;45.492;11.548;2022-11-20T01:19:22;14.93;;;9.70;;
31390;SDS011;18022;45.492;11.548;2022-11-20T01:21:50;12.52;;;9.13;;
31390;SDS011;18022;45.492;11.548;2022-11-20T01:24:17;12.77;;;8.80;;
31390;SDS011;18022;45.492;11.548;2022-11-20T01:26:45;12.73;;;9.15;;
31390;SDS011;18022;45.492;11.548;2022-11-20T01:31:38;11.30;;;8.02;;
31390;SDS011;18022;45.492;11.548;2022-11-20T01:34:05;11.82;;;8.75;;
31390;SDS011;18022;45.492;11.548;2022-11-20T01:36:32;11.95;;;7.80;;
31390;SDS011;18022;45.492;11.548;2022-11-20T01:39:01;10.43;;;7.45;;
31390;SDS011;18022;45.492;11.548;2022-11-20T01:41:31;7.38;;;6.35;;
31390;SDS011;18022;45.492;11.548;2022-11-20T01:44:18;10.35;;;7.72;;
31390;SDS011;18022;45.492;11.548;2022-11-20T01:46:56;11.27;;;7.50;;
31390;SDS011;18022;45.492;11.548;2022-11-20T01:49:58;11.13;;;7.40;;
31390;SDS011;18022;45.492;11.548;2022-11-20T01:52:27;10.98;;;7.90;;
31390;SDS011;18022;45.492;11.548;2022-11-20T01:55:00;10.82;;;8.13;;
31390;SDS011;18022;45.492;11.548;2022-11-20T01:57:31;10.13;;;7.20;;
31390;SDS011;18022;45.492;11.548;2022-11-20T02:00:00;10.98;;;8.48;;
31390;SDS011;18022;45.492;11.548;2022-11-20T02:02:32;10.90;;;7.70;;
31390;SDS011;18022;45.492;11.548;2022-11-20T02:04:59;9.88;;;7.90;;
31390;SDS011;18022;45.492;11.548;2022-11-20T02:07:29;10.40;;;7.60;;
31390;SDS011;18022;45.492;11.548;2022-11-20T02:09:55;14.10;;;7.10;;
31390;SDS011;18022;45.492;11.548;2022-11-20T02:12:21;9.25;;;6.22;;
31390;SDS011;18022;45.492;11.548;2022-11-20T02:15:05;11.07;;;7.18;;
31390;SDS011;18022;45.492;11.548;2022-11-20T02:17:31;10.18;;;6.68;;
31390;SDS011;18022;45.492;11.548;2022-11-20T02:19:57;8.25;;;5.88;;
31390;SDS011;18022;45.492;11.548;2022-11-20T02:22:28;18.27;;;7.00;;
31390;SDS011;18022;45.492;11.548;2022-11-20T02:25:03;8.25;;;6.85;;
31390;SDS011;18022;45.492;11.548;2022-11-20T02:27:30;13.32;;;7.82;;
31390;SDS011;18022;45.492;11.548;2022-11-20T02:29:57;11.90;;;8.07;;
31390;SDS011;18022;45.492;11.548;2022-11-20T02:32:28;10.55;;;7.20;;
31390;SDS011;18022;45.492;11.548;2022-11-20T02:35:05;11.80;;;7.22;;
31390;SDS011;18022;45.492;11.548;2022-11-20T02:37:36;10.27;;;7.03;;
31390;SDS011;18022;45.492;11.548;2022-11-20T02:40:05;10.60;;;7.13;;
31390;SDS011;18022;45.492;11.548;2022-11-20T02:42:31;9.63;;;7.55;;
31390;SDS011;18022;45.492;11.548;2022-11-20T02:44:57;10.40;;;7.22;;
31390;SDS011;18022;45.492;11.548;2022-11-20T02:47:23;12.68;;;7.80;;
31390;SDS011;18022;45.492;11.548;2022-11-20T02:49:48;12.27;;;7.35;;
31390;SDS011;18022;45.492;11.548;2022-11-20T02:52:14;11.75;;;7.82;;
31390;SDS011;18022;45.492;11.548;2022-11-20T02:54:39;12.90;;;7.30;;
31390;SDS011;18022;45.492;11.548;2022-11-20T02:57:05;11.45;;;6.15;;
31390;SDS011;18022;45.492;11.548;2022-11-20T02:59:31;8.88;;;5.90;;
31390;SDS011;18022;45.492;11.548;2022-11-20T03:01:56;10.50;;;6.60;;
31390;SDS011;18022;45.492;11.548;2022-11-20T03:04:22;11.43;;;6.03;;
31390;SDS011;18022;45.492;11.548;2022-11-20T03:06:48;9.45;;;6.57;;
31390;SDS011;18022;45.492;11.548;2022-11-20T03:09:13;12.05;;;5.68;;
31390;SDS011;18022;45.492;11.548;2022-11-20T03:11:39;8.57;;;6.07;;
31390;SDS011;18022;45.492;11.548;2022-11-20T03:14:04;9.05;;;5.85;;
31390;SDS011;18022;45.492;11.548;2022-11-20T03:16:31;8.57;;;6.20;;
31390;SDS011;18022;45.492;11.548;2022-11-20T03:18:57;11.65;;;6.20;;
31390;SDS011;18022;45.492;11.548;2022-11-20T03:21:23;9.63;;;5.75;;
31390;SDS011;18022;45.492;11.548;2022-11-20T03:23:49;9.25;;;5.53;;
31390;SDS011;18022;45.492;11.548;2022-11-20T03:26:16;8.20;;;5.32;;
31390;SDS011;18022;45.492;11.548;2022-11-20T03:28:50;8.15;;;5.10;;
31390;SDS011;18022;45.492;11.548;2022-11-20T03:31:24;11.50;;;5.90;;
31390;SDS011;18022;45.492;11.548;2022-11-20T03:33:51;13.68;;;7.03;;
31390;SDS011;18022;45.492;11.548;2022-11-20T03:36:18;15.02;;;7.38;;
31390;SDS011;18022;45.492;11.548;2022-11-20T03:38:45;13.32;;;6.93;;
31390;SDS011;18022;45.492;11.548;2022-11-20T03:41:12;17.13;;;6.55;;
31390;SDS011;18022;45.492;11.548;2022-11-20T03:43:40;11.73;;;5.95;;
31390;SDS011;18022;45.492;11.548;2022-11-20T03:46:06;9.73;;;6.05;;
31390;SDS011;18022;45.492;11.548;2022-11-20T03:48:32;10.88;;;5.60;;
31390;SDS011;18022;45.492;11.548;2022-11-20T03:51:09;10.88;;;6.10;;
31390;SDS011;18022;45.492;11.548;2022-11-20T03:53:43;8.02;;;5.22;;
31390;SDS011;18022;45.492;11.548;2022-11-20T03:56:10;7.72;;;5.47;;
31390;SDS011;18022;45.492;11.548;2022-11-20T03:58:37;7.03;;;5.13;;
31390;SDS011;18022;45.492;11.548;2022-11-20T04:01:07;8.32;;;5.25;;
31390;SDS011;18022;45.492;11.548;2022-11-20T04:03:43;9.00;;;5.35;;
31390;SDS011;18022;45.492;11.548;2022-11-20T04:06:14;7.27;;;4.60;;
31390;SDS011;18022;45.492;11.548;2022-11-20T04:08:42;7.45;;;3.92;;
31390;SDS011;18022;45.492;11.548;2022-11-20T04:11:15;5.18;;;3.53;;
31390;SDS011;18022;45.492;11.548;2022-11-20T04:13:42;4.35;;;3.28;;
31390;SDS011;18022;45.492;11.548;2022-11-20T04:16:12;4.70;;;3.35;;
31390;SDS011;18022;45.492;11.548;2022-11-20T04:18:38;3.63;;;3.00;;
31390;SDS011;18022;45.492;11.548;2022-11-20T04:21:04;3.80;;;3.20;;
31390;SDS011;18022;45.492;11.548;2022-11-20T04:23:31;4.80;;;3.55;;
31390;SDS011;18022;45.492;11.548;2022-11-20T04:26:01;3.85;;;2.65;;
31390;SDS011;18022;45.492;11.548;2022-11-20T04:28:31;3.78;;;2.97;;
31390;SDS011;18022;45.492;11.548;2022-11-20T04:31:04;8.57;;;3.30;;
31390;SDS011;18022;45.492;11.548;2022-11-20T04:33:31;3.55;;;2.92;;
31390;SDS011;18022;45.492;11.548;2022-11-20T04:36:01;5.10;;;3.22;;
31390;SDS011;18022;45.492;11.548;2022-11-20T04:38:31;4.68;;;3.05;;
31390;SDS011;18022;45.492;11.548;2022-11-20T04:40:58;5.70;;;3.63;;
31390;SDS011;18022;45.492;11.548;2022-11-20T04:43:25;5.05;;;2.97;;
31390;SDS011;18022;45.492;11.548;2022-11-20T04:45:51;4.78;;;3.03;;
31390;SDS011;18022;45.492;11.548;2022-11-20T04:48:18;4.70;;;2.40;;
31390;SDS011;18022;45.492;11.548;2022-11-20T04:50:44;5.47;;;2.80;;
31390;SDS011;18022;45.492;11.548;2022-11-20T04:53:09;3.22;;;2.42;;
31390;SDS011;18022;45.492;11.548;2022-11-20T04:55:35;5.85;;;2.72;;
31390;SDS011;18022;45.492;11.548;2022-11-20T04:58:01;5.93;;;2.88;;
31390;SDS011;18022;45.492;11.548;2022-11-20T05:00:26;6.43;;;2.63;;
31390;SDS011;18022;45.492;11.548;2022-11-20T05:02:52;6.93;;;2.70;;
31390;SDS011;18022;45.492;11.548;2022-11-20T05:05:17;3.13;;;2.05;;
31390;SDS011;18022;45.492;11.548;2022-11-20T05:07:43;2.92;;;2.25;;
31390;SDS011;18022;45.492;11.548;2022-11-20T05:10:09;2.55;;;2.22;;
31390;SDS011;18022;45.492;11.548;2022-11-20T05:12:34;2.90;;;2.20;;
31390;SDS011;18022;45.492;11.548;2022-11-20T05:15:00;3.00;;;2.10;;
31390;SDS011;18022;45.492;11.548;2022-11-20T05:17:26;6.20;;;2.28;;
31390;SDS011;18022;45.492;11.548;2022-11-20T05:19:51;4.25;;;2.15;;
31390;SDS011;18022;45.492;11.548;2022-11-20T05:22:17;2.58;;;2.08;;
31390;SDS011;18022;45.492;11.548;2022-11-20T05:24:42;2.80;;;2.28;;
31390;SDS011;18022;45.492;11.548;2022-11-20T05:27:08;2.45;;;2.10;;
31390;SDS011;18022;45.492;11.548;2022-11-20T05:29:34;3.53;;;2.05;;
31390;SDS011;18022;45.492;11.548;2022-11-20T05:32:00;2.92;;;2.00;;
31390;SDS011;18022;45.492;11.548;2022-11-20T05:34:25;2.75;;;1.92;;
31390;SDS011;18022;45.492;11.548;2022-11-20T05:36:51;2.50;;;2.10;;
31390;SDS011;18022;45.492;11.548;2022-11-20T05:39:16;3.05;;;2.00;;
31390;SDS011;18022;45.492;11.548;2022-11-20T05:41:42;2.47;;;1.98;;
31390;SDS011;18022;45.492;11.548;2022-11-20T05:44:10;1.90;;;1.70;;
31390;SDS011;18022;45.492;11.548;2022-11-20T05:46:36;2.55;;;1.92;;
31390;SDS011;18022;45.492;11.548;2022-11-20T05:49:01;2.35;;;2.05;;
31390;SDS011;18022;45.492;11.548;2022-11-20T05:51:27;3.15;;;1.90;;
31390;SDS011;18022;45.492;11.548;2022-11-20T05:53:53;1.60;;;1.50;;
31390;SDS011;18022;45.492;11.548;2022-11-20T05:56:21;1.60;;;1.50;;
31390;SDS011;18022;45.492;11.548;2022-11-20T05:58:47;1.33;;;1.05;;
31390;SDS011;18022;45.492;11.548;2022-11-20T06:03:41;1.75;;;1.20;;
31390;SDS011;18022;45.492;11.548;2022-11-20T06:06:11;1.35;;;1.23;;
31390;SDS011;18022;45.492;11.548;2022-11-20T06:08:37;2.05;;;1.20;;
31390;SDS011;18022;45.492;11.548;2022-11-20T06:11:03;2.33;;;1.30;;
31390;SDS011;18022;45.492;11.548;2022-11-20T06:13:30;2.50;;;1.42;;
31390;SDS011;18022;45.492;11.548;2022-11-20T06:15:56;1.20;;;1.10;;
31390;SDS011;18022;45.492;11.548;2022-11-20T06:18:22;2.53;;;1.58;;
31390;SDS011;18022;45.492;11.548;2022-11-20T06:20:47;4.47;;;2.30;;
31390;SDS011;18022;45.492;11.548;2022-11-20T06:23:13;7.07;;;2.10;;
31390;SDS011;18022;45.492;11.548;2022-11-20T06:25:39;2.45;;;1.90;;
31390;SDS011;18022;45.492;11.548;2022-11-20T06:28:06;2.13;;;1.70;;
31390;SDS011;18022;45.492;11.548;2022-11-20T06:30:32;2.85;;;1.83;;
31390;SDS011;18022;45.492;11.548;2022-11-20T06:32:57;4.45;;;2.05;;
31390;SDS011;18022;45.492;11.548;2022-11-20T06:35:23;2.88;;;1.50;;
31390;SDS011;18022;45.492;11.548;2022-11-20T06:37:49;3.05;;;1.73;;
31390;SDS011;18022;45.492;11.548;2022-11-20T06:40:14;3.05;;;1.77;;
31390;SDS011;18022;45.492;11.548;2022-11-20T06:42:40;1.65;;;1.50;;
31390;SDS011;18022;45.492;11.548;2022-11-20T06:45:06;2.08;;;1.85;;
31390;SDS011;18022;45.492;11.548;2022-11-20T06:47:32;2.70;;;2.00;;
31390;SDS011;18022;45.492;11.548;2022-11-20T06:49:58;3.17;;;2.05;;
31390;SDS011;18022;45.492;11.548;2022-11-20T06:52:24;2.00;;;1.50;;
31390;SDS011;18022;45.492;11.548;2022-11-20T06:54:49;2.47;;;1.60;;
31390;SDS011;18022;45.492;11.548;2022-11-20T06:57:15;2.13;;;1.52;;
31390;SDS011;18022;45.492;11.548;2022-11-20T06:59:41;2.78;;;1.70;;
31390;SDS011;18022;45.492;11.548;2022-11-20T07:02:09;2.30;;;1.38;;
31390;SDS011;18022;45.492;11.548;2022-11-20T07:04:38;2.47;;;1.65;;
31390;SDS011;18022;45.492;11.548;2022-11-20T07:07:04;1.88;;;1.30;;
31390;SDS011;18022;45.492;11.548;2022-11-20T07:09:31;3.63;;;1.55;;
31390;SDS011;18022;45.492;11.548;2022-11-20T07:11:57;4.15;;;2.38;;
31390;SDS011;18022;45.492;11.548;2022-11-20T07:14:23;2.30;;;1.70;;
31390;SDS011;18022;45.492;11.548;2022-11-20T07:16:48;3.80;;;1.90;;
31390;SDS011;18022;45.492;11.548;2022-11-20T07:19:14;2.88;;;1.90;;
31390;SDS011;18022;45.492;11.548;2022-11-20T07:21:40;2.10;;;1.80;;
31390;SDS011;18022;45.492;11.548;2022-11-20T07:24:06;3.55;;;2.10;;
31390;SDS011;18022;45.492;11.548;2022-11-20T07:26:32;3.90;;;2.08;;
31390;SDS011;18022;45.492;11.548;2022-11-20T07:28:57;4.38;;;2.33;;
31390;SDS011;18022;45.492;11.548;2022-11-20T07:31:23;3.88;;;2.10;;
31390;SDS011;18022;45.492;11.548;2022-11-20T07:33:49;2.05;;;1.65;;
31390;SDS011;18022;45.492;11.548;2022-11-20T07:36:14;2.67;;;1.60;;
31390;SDS011;18022;45.492;11.548;2022-11-20T07:38:40;1.60;;;1.27;;
31390;SDS011;18022;45.492;11.548;2022-11-20T07:41:06;2.83;;;2.00;;
31390;SDS011;18022;45.492;11.548;2022-11-20T07:43:32;1.75;;;1.60;;
31390;SDS011;18022;45.492;11.548;2022-11-20T07:45:58;2.53;;;1.80;;
31390;SDS011;18022;45.492;11.548;2022-11-20T07:48:24;3.67;;;1.70;;
31390;SDS011;18022;45.492;11.548;2022-11-20T07:50:53;3.58;;;1.50;;
31390;SDS011;18022;45.492;11.548;2022-11-20T07:53:19;2.30;;;1.70;;
31390;SDS011;18022;45.492;11.548;2022-11-20T07:55:46;1.80;;;1.70;;
31390;SDS011;18022;45.492;11.548;2022-11-20T07:58:12;1.85;;;1.60;;
31390;SDS011;18022;45.492;11.548;2022-11-20T08:00:39;2.50;;;1.90;;
31390;SDS011;18022;45.492;11.548;2022-11-20T08:03:05;5.25;;;2.00;;
31390;SDS011;18022;45.492;11.548;2022-11-20T08:05:31;3.03;;;1.90;;
31390;SDS011;18022;45.492;11.548;2022-11-20T08:07:57;2.25;;;1.90;;
31390;SDS011;18022;45.492;11.548;2022-11-20T08:10:22;2.47;;;1.98;;
31390;SDS011;18022;45.492;11.548;2022-11-20T08:12:49;3.78;;;2.20;;
31390;SDS011;18022;45.492;11.548;2022-11-20T08:15:34;2.22;;;1.80;;
31390;SDS011;18022;45.492;11.548;2022-11-20T08:18:01;3.42;;;1.80;;
31390;SDS011;18022;45.492;11.548;2022-11-20T08:20:28;3.47;;;1.83;;
31390;SDS011;18022;45.492;11.548;2022-11-20T08:22:57;2.90;;;2.00;;
31390;SDS011;18022;45.492;11.548;2022-11-20T08:25:25;1.95;;;1.50;;
31390;SDS011;18022;45.492;11.548;2022-11-20T08:27:51;3.95;;;2.08;;
31390;SDS011;18022;45.492;11.548;2022-11-20T08:30:16;4.95;;;1.90;;
31390;SDS011;18022;45.492;11.548;2022-11-20T08:32:42;2.60;;;1.95;;
31390;SDS011;18022;45.492;11.548;2022-11-20T08:35:08;3.15;;;1.88;;
31390;SDS011;18022;45.492;11.548;2022-11-20T08:37:33;4.53;;;1.80;;
31390;SDS011;18022;45.492;11.548;2022-11-20T08:39:59;6.47;;;2.15;;
31390;SDS011;18022;45.492;11.548;2022-11-20T08:42:25;6.20;;;2.70;;
31390;SDS011;18022;45.492;11.548;2022-11-20T08:44:50;3.38;;;2.22;;
31390;SDS011;18022;45.492;11.548;2022-11-20T08:47:16;5.50;;;2.80;;
31390;SDS011;18022;45.492;11.548;2022-11-20T08:49:42;5.18;;;2.30;;
31390;SDS011;18022;45.492;11.548;2022-11-20T08:52:07;3.08;;;2.70;;
31390;SDS011;18022;45.492;11.548;2022-11-20T08:54:33;3.15;;;2.63;;
31390;SDS011;18022;45.492;11.548;2022-11-20T08:56:59;4.25;;;2.55;;
31390;SDS011;18022;45.492;11.548;2022-11-20T08:59:24;4.57;;;2.70;;
31390;SDS011;18022;45.492;11.548;2022-11-20T09:01:50;4.80;;;2.78;;
31390;SDS011;18022;45.492;11.548;2022-11-20T09:04:16;5.00;;;2.90;;
31390;SDS011;18022;45.492;11.548;2022-11-20T09:06:41;6.13;;;3.25;;
31390;SDS011;18022;45.492;11.548;2022-11-20T09:09:07;3.45;;;3.15;;
31390;SDS011;18022;45.492;11.548;2022-11-20T09:11:34;4.15;;;3.33;;
31390;SDS011;18022;45.492;11.548;2022-11-20T09:14:00;5.13;;;3.72;;
31390;SDS011;18022;45.492;11.548;2022-11-20T09:16:27;10.00;;;4.85;;
31390;SDS011;18022;45.492;11.548;2022-11-20T09:18:53;6.05;;;5.07;;
31390;SDS011;18022;45.492;11.548;2022-11-20T09:21:18;5.05;;;4.35;;
31390;SDS011;18022;45.492;11.548;2022-11-20T09:23:44;6.40;;;4.65;;
31390;SDS011;18022;45.492;11.548;2022-11-20T09:26:12;5.85;;;4.13;;
31390;SDS011;18022;45.492;11.548;2022-11-20T09:28:38;4.65;;;3.72;;
31390;SDS011;18022;45.492;11.548;2022-11-20T09:31:08;8.35;;;4.40;;
31390;SDS011;18022;45.492;11.548;2022-11-20T09:33:49;8.00;;;4.00;;
31390;SDS011;18022;45.492;11.548;2022-11-20T09:36:15;6.45;;;3.80;;
31390;SDS011;18022;45.492;11.548;2022-11-20T09:38:43;12.82;;;4.78;;
31390;SDS011;18022;45.492;11.548;2022-11-20T09:54:39;5.20;;;2.83;;
31390;SDS011;18022;45.492;11.548;2022-11-20T09:57:13;2.63;;;1.85;;
31390;SDS011;18022;45.492;11.548;2022-11-20T10:07:42;2.42;;;1.60;;
31390;SDS011;18022;45.492;11.548;2022-11-20T10:10:17;3.08;;;2.20;;
31390;SDS011;18022;45.492;11.548;2022-11-20T10:26:30;4.63;;;3.38;;
31390;SDS011;18022;45.492;11.548;2022-11-20T10:29:18;2.08;;;1.10;;
31390;SDS011;18022;45.492;11.548;2022-11-20T10:31:52;1.35;;;1.00;;
31390;SDS011;18022;45.492;11.548;2022-11-20T10:34:26;1.00;;;0.80;;
31390;SDS011;18022;45.492;11.548;2022-11-20T10:37:14;1.20;;;1.00;;
31390;SDS011;18022;45.492;11.548;2022-11-20T10:45:13;1.75;;;0.60;;
31390;SDS011;18022;45.492;11.548;2022-11-20T10:47:56;5.18;;;1.40;;
31390;SDS011;18022;45.492;11.548;2022-11-20T10:50:32;2.80;;;0.80;;
31390;SDS011;18022;45.492;11.548;2022-11-20T10:55:46;4.10;;;3.60;;
31390;SDS011;18022;45.492;11.548;2022-11-20T10:58:50;13.32;;;10.70;;
31390;SDS011;18022;45.492;11.548;2022-11-20T11:01:23;4.70;;;3.30;;
31390;SDS011;18022;45.492;11.548;2022-11-20T11:03:52;9.70;;;3.30;;
31390;SDS011;18022;45.492;11.548;2022-11-20T11:09:02;3.60;;;2.10;;
31390;SDS011;18022;45.492;11.548;2022-11-20T11:11:34;2.90;;;2.55;;
31390;SDS011;18022;45.492;11.548;2022-11-20T11:14:10;6.57;;;3.72;;
31390;SDS011;18022;45.492;11.548;2022-11-20T11:16:59;2.70;;;2.10;;
31390;SDS011;18022;45.492;11.548;2022-11-20T11:19:24;2.70;;;1.70;;
31390;SDS011;18022;45.492;11.548;2022-11-20T11:21:51;3.60;;;1.88;;
31390;SDS011;18022;45.492;11.548;2022-11-20T11:24:28;2.13;;;1.92;;
31390;SDS011;18022;45.492;11.548;2022-11-20T11:26:59;4.30;;;2.30;;
31390;SDS011;18022;45.492;11.548;2022-11-20T11:29:31;2.33;;;2.13;;
31390;SDS011;18022;45.492;11.548;2022-11-20T11:32:07;3.33;;;2.28;;
31390;SDS011;18022;45.492;11.548;2022-11-20T11:34:37;2.88;;;2.38;;
31390;SDS011;18022;45.492;11.548;2022-11-20T11:37:03;3.20;;;2.63;;
31390;SDS011;18022;45.492;11.548;2022-11-20T11:39:30;4.35;;;3.17;;
31390;SDS011;18022;45.492;11.548;2022-11-20T11:41:58;3.05;;;2.63;;
31390;SDS011;18022;45.492;11.548;2022-11-20T11:44:30;5.28;;;2.85;;
31390;SDS011;18022;45.492;11.548;2022-11-20T11:47:30;5.82;;;3.20;;
31390;SDS011;18022;45.492;11.548;2022-11-20T11:50:22;4.20;;;2.95;;
31390;SDS011;18022;45.492;11.548;2022-11-20T11:58:24;5.97;;;2.80;;
31390;SDS011;18022;45.492;11.548;2022-11-20T12:03:35;7.65;;;4.25;;
31390;SDS011;18022;45.492;11.548;2022-11-20T12:06:15;12.75;;;9.00;;
31390;SDS011;18022;45.492;11.548;2022-11-20T12:14:37;5.43;;;4.13;;
31390;SDS011;18022;45.492;11.548;2022-11-20T12:17:07;4.30;;;3.50;;
31390;SDS011;18022;45.492;11.548;2022-11-20T12:19:36;15.68;;;12.50;;
31390;SDS011;18022;45.492;11.548;2022-11-20T12:30:22;5.55;;;3.92;;
31390;SDS011;18022;45.492;11.548;2022-11-20T12:35:53;12.20;;;8.75;;
31390;SDS011;18022;45.492;11.548;2022-11-20T12:47:05;6.38;;;4.78;;
31390;SDS011;18022;45.492;11.548;2022-11-20T12:49:47;2.50;;;2.10;;
31390;SDS011;18022;45.492;11.548;2022-11-20T12:52:30;3.53;;;3.17;;
31390;SDS011;18022;45.492;11.548;2022-11-20T12:58:05;6.30;;;3.53;;
31390;SDS011;18022;45.492;11.548;2022-11-20T13:00:47;4.97;;;3.80;;
31390;SDS011;18022;45.492;11.548;2022-11-20T13:04:01;4.47;;;3.42;;
31390;SDS011;18022;45.492;11.548;2022-11-20T13:06:49;4.32;;;3.25;;
31390;SDS011;18022;45.492;11.548;2022-11-20T13:09:16;4.85;;;3.92;;
31390;SDS011;18022;45.492;11.548;2022-11-20T13:15:05;6.22;;;3.70;;
31390;SDS011;18022;45.492;11.548;2022-11-20T13:17:38;3.42;;;2.63;;
31390;SDS011;18022;45.492;11.548;2022-11-20T13:20:26;3.25;;;2.70;;
31390;SDS011;18022;45.492;11.548;2022-11-20T13:22:53;3.63;;;3.30;;
31390;SDS011;18022;45.492;11.548;2022-11-20T13:25:43;3.75;;;2.75;;
31390;SDS011;18022;45.492;11.548;2022-11-20T13:30:36;3.03;;;2.72;;
31390;SDS011;18022;45.492;11.548;2022-11-20T13:33:25;3.67;;;2.80;;
31390;SDS011;18022;45.492;11.548;2022-11-20T13:36:00;4.15;;;3.00;;
31390;SDS011;18022;45.492;11.548;2022-11-20T13:38:47;4.20;;;2.83;;
31390;SDS011;18022;45.492;11.548;2022-11-20T13:41:27;3.00;;;2.50;;
31390;SDS011;18022;45.492;11.548;2022-11-20T13:46:38;4.85;;;2.80;;
31390;SDS011;18022;45.492;11.548;2022-11-20T13:49:31;4.80;;;3.00;;
31390;SDS011;18022;45.492;11.548;2022-11-20T13:52:07;4.40;;;3.20;;
31390;SDS011;18022;45.492;11.548;2022-11-20T14:00:28;6.55;;;3.10;;
31390;SDS011;18022;45.492;11.548;2022-11-20T14:05:25;4.40;;;3.17;;
31390;SDS011;18022;45.492;11.548;2022-11-20T14:07:51;6.80;;;3.63;;
31390;SDS011;18022;45.492;11.548;2022-11-20T14:10:26;6.88;;;3.67;;
31390;SDS011;18022;45.492;11.548;2022-11-20T14:12:53;3.63;;;3.22;;
31390;SDS011;18022;45.492;11.548;2022-11-20T14:15:32;4.82;;;3.50;;
31390;SDS011;18022;45.492;11.548;2022-11-20T14:17:59;5.22;;;3.63;;
31390;SDS011;18022;45.492;11.548;2022-11-20T14:20:36;5.85;;;3.60;;
31390;SDS011;18022;45.492;11.548;2022-11-20T14:23:03;4.35;;;3.53;;
31390;SDS011;18022;45.492;11.548;2022-11-20T14:25:30;4.13;;;3.72;;
31390;SDS011;18022;45.492;11.548;2022-11-20T14:30:29;5.03;;;3.75;;
31390;SDS011;18022;45.492;11.548;2022-11-20T14:33:12;6.35;;;3.90;;
31390;SDS011;18022;45.492;11.548;2022-11-20T14:35:40;8.65;;;4.18;;
31390;SDS011;18022;45.492;11.548;2022-11-20T14:38:17;6.10;;;4.15;;
31390;SDS011;18022;45.492;11.548;2022-11-20T14:40:46;5.60;;;3.88;;
31390;SDS011;18022;45.492;11.548;2022-11-20T14:43:23;4.93;;;3.42;;
31390;SDS011;18022;45.492;11.548;2022-11-20T14:45:57;5.32;;;4.15;;
31390;SDS011;18022;45.492;11.548;2022-11-20T14:48:32;5.50;;;4.40;;
31390;SDS011;18022;45.492;11.548;2022-11-20T14:51:02;6.72;;;4.60;;
31390;SDS011;18022;45.492;11.548;2022-11-20T14:53:28;8.50;;;4.65;;
31390;SDS011;18022;45.492;11.548;2022-11-20T14:55:55;5.40;;;4.35;;
31390;SDS011;18022;45.492;11.548;2022-11-20T14:58:26;5.20;;;4.20;;
31390;SDS011;18022;45.492;11.548;2022-11-20T15:03:33;6.28;;;4.90;;
31390;SDS011;18022;45.492;11.548;2022-11-20T15:06:02;8.77;;;4.28;;
31390;SDS011;18022;45.492;11.548;2022-11-20T15:08:29;5.55;;;3.92;;
31390;SDS011;18022;45.492;11.548;2022-11-20T15:10:55;10.13;;;4.78;;
31390;SDS011;18022;45.492;11.548;2022-11-20T15:13:36;5.35;;;3.90;;
31390;SDS011;18022;45.492;11.548;2022-11-20T15:16:17;4.85;;;4.13;;
31390;SDS011;18022;45.492;11.548;2022-11-20T15:18:44;6.65;;;3.88;;
31390;SDS011;18022;45.492;11.548;2022-11-20T15:21:11;7.63;;;4.25;;
31390;SDS011;18022;45.492;11.548;2022-11-20T15:23:39;12.27;;;7.72;;
31390;SDS011;18022;45.492;11.548;2022-11-20T15:26:05;12.02;;;9.05;;
31390;SDS011;18022;45.492;11.548;2022-11-20T15:28:33;11.83;;;8.47;;
31390;SDS011;18022;45.492;11.548;2022-11-20T15:31:02;14.65;;;10.38;;
31390;SDS011;18022;45.492;11.548;2022-11-20T15:33:29;17.70;;;13.20;;
31390;SDS011;18022;45.492;11.548;2022-11-20T15:35:55;23.33;;;15.95;;
31390;SDS011;18022;45.492;11.548;2022-11-20T15:38:21;22.08;;;16.17;;
31390;SDS011;18022;45.492;11.548;2022-11-20T15:40:47;30.67;;;19.80;;
31390;SDS011;18022;45.492;11.548;2022-11-20T15:43:13;32.47;;;20.17;;
31390;SDS011;18022;45.492;11.548;2022-11-20T15:45:46;21.27;;;13.38;;
31390;SDS011;18022;45.492;11.548;2022-11-20T15:50:52;14.90;;;11.05;;
31390;SDS011;18022;45.492;11.548;2022-11-20T15:53:21;7.57;;;5.80;;
31390;SDS011;18022;45.492;11.548;2022-11-20T15:55:46;6.40;;;5.32;;
31390;SDS011;18022;45.492;11.548;2022-11-20T15:58:12;9.07;;;5.72;;
31390;SDS011;18022;45.492;11.548;2022-11-20T16:00:38;6.70;;;5.53;;
31390;SDS011;18022;45.492;11.548;2022-11-20T16:03:04;7.75;;;5.32;;
31390;SDS011;18022;45.492;11.548;2022-11-20T16:05:30;9.90;;;6.20;;
31390;SDS011;18022;45.492;11.548;2022-11-20T16:07:56;8.02;;;6.20;;
31390;SDS011;18022;45.492;11.548;2022-11-20T16:10:22;8.30;;;6.22;;
31390;SDS011;18022;45.492;11.548;2022-11-20T16:12:48;7.35;;;5.97;;
31390;SDS011;18022;45.492;11.548;2022-11-20T16:15:32;10.73;;;6.18;;
31390;SDS011;18022;45.492;11.548;2022-11-20T16:18:12;8.27;;;6.13;;
31390;SDS011;18022;45.492;11.548;2022-11-20T16:20:40;8.32;;;6.53;;
31390;SDS011;18022;45.492;11.548;2022-11-20T16:23:06;9.75;;;7.05;;
31390;SDS011;18022;45.492;11.548;2022-11-20T16:25:32;10.73;;;7.00;;
31390;SDS011;18022;45.492;11.548;2022-11-20T16:27:58;8.93;;;6.88;;
31390;SDS011;18022;45.492;11.548;2022-11-20T16:30:24;10.30;;;7.25;;
31390;SDS011;18022;45.492;11.548;2022-11-20T16:32:51;10.25;;;7.97;;
31390;SDS011;18022;45.492;11.548;2022-11-20T16:35:16;13.35;;;8.88;;
31390;SDS011;18022;45.492;11.548;2022-11-20T16:37:42;18.58;;;10.93;;